Time;durP1;ratioP1;P1;durP2;ratioP2;P2;SDS_P1;SDS_P2;PMS_P1;PMS_P2;Temp;Humidity;BMP_temperature;BMP_pressure;BME280_temperature;BME280_humidity;BME280_pressure;Samples;Min_cycle;Max_cycle;Signal;HPM_P1;HPM_P2
2022/11/29 00:00:33;;;;;;;1999.90;999.90;;;;;;;5.95;100.00;93898.75;5078402;28;20175;-65
2022/11/29 00:02:59;;;;;;;1999.90;999.90;;;;;;;5.97;100.00;93896.38;5078629;28;20501;-66
2022/11/29 00:05:24;;;;;;;1999.90;999.90;;;;;;;5.99;100.00;93891.34;5078420;28;20278;-66
2022/11/29 00:07:49;;;;;;;1999.90;999.90;;;;;;;6.02;100.00;93891.25;5078924;28;20181;-62
2022/11/29 00:10:15;;;;;;;1999.90;999.90;;;;;;;6.05;100.00;93887.00;5078351;28;20170;-61
2022/11/29 00:12:40;;;;;;;1999.90;999.90;;;;;;;5.93;100.00;93884.84;5077973;28;20180;-61
2022/11/29 00:15:06;;;;;;;1999.90;999.90;;;;;;;6.03;100.00;93875.78;5077711;28;20209;-62
2022/11/29 00:17:31;;;;;;;1999.90;999.90;;;;;;;6.06;100.00;93883.09;5078461;28;20562;-61
2022/11/29 00:19:57;;;;;;;1999.90;999.90;;;;;;;5.93;100.00;93882.13;5078372;28;20183;-62
2022/11/29 00:22:24;;;;;;;1999.90;999.90;;;;;;;6.06;100.00;93864.91;5077818;28;20598;-61
2022/11/29 00:24:50;;;;;;;1999.90;999.90;;;;;;;5.96;100.00;93868.53;5078336;28;20228;-64
2022/11/29 00:27:15;;;;;;;1999.90;999.90;;;;;;;5.94;100.00;93870.88;5078402;28;20169;-62
2022/11/29 00:29:41;;;;;;;1999.90;999.90;;;;;;;5.94;100.00;93849.22;5077797;28;20213;-62
2022/11/29 00:32:06;;;;;;;1999.90;999.90;;;;;;;5.93;100.00;93852.34;5077893;28;20327;-63
2022/11/29 00:34:31;;;;;;;1999.90;999.90;;;;;;;5.94;100.00;93859.31;5077322;28;20378;-62
2022/11/29 00:36:57;;;;;;;1999.90;999.90;;;;;;;5.94;100.00;93843.78;5078265;28;20205;-63
2022/11/29 00:39:22;;;;;;;1999.90;999.90;;;;;;;5.95;100.00;93850.00;5078145;28;20177;-62
2022/11/29 00:41:47;;;;;;;1999.90;999.90;;;;;;;5.94;100.00;93843.06;5078181;28;20267;-62
2022/11/29 00:46:40;;;;;;;1999.90;999.90;;;;;;;5.93;100.00;93830.66;5014155;28;20213;-66
2022/11/29 00:49:06;;;;;;;1999.90;999.90;;;;;;;5.93;100.00;93830.66;4998685;28;20208;-67
2022/11/29 00:51:31;;;;;;;1999.90;999.90;;;;;;;5.96;100.00;93822.50;4998384;28;20178;-67
2022/11/29 00:53:56;;;;;;;1999.90;999.90;;;;;;;5.99;100.00;93818.19;4997947;28;20332;-66
2022/11/29 00:56:22;;;;;;;1999.90;999.90;;;;;;;5.99;100.00;93808.13;4997693;28;20207;-67
2022/11/29 00:58:48;;;;;;;1999.90;999.90;;;;;;;5.98;100.00;93813.97;4998517;28;20187;-67
2022/11/29 01:01:13;;;;;;;1999.90;999.90;;;;;;;6.00;100.00;93804.22;4998030;28;20176;-74
2022/11/29 01:03:39;;;;;;;1999.90;999.90;;;;;;;6.02;100.00;93809.25;4997822;28;20211;-61
2022/11/29 01:06:11;;;;;;;1999.90;999.90;;;;;;;6.01;100.00;93796.88;5014832;28;20178;-61
2022/11/29 01:08:37;;;;;;;1999.90;999.90;;;;;;;6.01;100.00;93800.34;4998126;28;20526;-61
2022/11/29 01:11:21;;;;;;;1999.90;999.90;;;;;;;6.03;100.00;93798.00;4998065;28;20181;-60
2022/11/29 01:13:47;;;;;;;1999.90;999.90;;;;;;;6.04;100.00;93788.69;4998204;28;20173;-61
2022/11/29 01:16:14;;;;;;;1999.90;999.90;;;;;;;6.05;100.00;93786.75;4997665;28;20250;-61
2022/11/29 01:18:40;;;;;;;1999.90;999.90;;;;;;;6.05;100.00;93794.88;4997625;28;20660;-60
2022/11/29 01:21:09;;;;;;;1999.90;999.90;;;;;;;6.08;100.00;93788.59;4997920;28;20186;-76
2022/11/29 01:23:35;;;;;;;1999.90;999.90;;;;;;;6.07;100.00;93781.66;4997287;28;20179;-75
2022/11/29 01:26:22;;;;;;;1999.90;999.90;;;;;;;6.18;100.00;93787.66;4997466;28;20180;-76
2022/11/29 01:28:49;;;;;;;1999.90;999.90;;;;;;;6.24;100.00;93786.75;4998427;28;20182;-78
2022/11/29 01:31:18;;;;;;;1999.90;999.90;;;;;;;6.26;100.00;93786.34;5014955;28;20244;-77
2022/11/29 01:33:43;;;;;;;1999.90;999.90;;;;;;;6.28;100.00;93786.72;4997525;28;20184;-76
2022/11/29 01:36:10;;;;;;;1999.90;999.90;;;;;;;6.28;100.00;93792.91;4997774;28;20352;-60
2022/11/29 01:38:36;;;;;;;1999.90;999.90;;;;;;;6.27;100.00;93790.63;4997464;28;20237;-61
2022/11/29 01:41:03;;;;;;;1999.90;999.90;;;;;;;6.28;100.00;93797.56;4997365;28;20272;-57
2022/11/29 01:43:30;;;;;;;1999.90;999.90;;;;;;;6.27;100.00;93801.44;4997077;28;20226;-56
2022/11/29 01:45:55;;;;;;;1999.90;999.90;;;;;;;6.27;100.00;93804.16;4997095;28;20243;-57
2022/11/29 01:48:27;;;;;;;1999.90;999.90;;;;;;;6.25;100.00;93803.78;4997318;28;20182;-57
2022/11/29 01:50:56;;;;;;;1999.90;999.90;;;;;;;6.25;100.00;93803.78;4997317;28;20184;-57
2022/11/29 01:53:22;;;;;;;1999.90;999.90;;;;;;;6.23;100.00;93806.16;4997093;28;20178;-57
2022/11/29 01:55:52;;;;;;;1999.90;999.90;;;;;;;6.23;100.00;93808.88;4997534;28;20232;-62
2022/11/29 01:58:19;;;;;;;1999.90;999.90;;;;;;;6.24;100.00;93813.13;4997832;28;20196;-72
2022/11/29 02:00:44;;;;;;;1999.90;999.90;;;;;;;6.22;100.00;93818.16;4997759;28;20182;-71
2022/11/29 02:03:13;;;;;;;1999.90;999.90;;;;;;;6.16;100.00;93819.84;4997032;28;20204;-71
2022/11/29 02:05:43;;;;;;;1999.90;999.90;;;;;;;6.12;100.00;93819.16;4997251;28;20269;-71
2022/11/29 02:08:12;;;;;;;1999.90;999.90;;;;;;;6.11;100.00;93821.06;4996874;28;20176;-71
2022/11/29 02:10:59;;;;;;;1999.90;999.90;;;;;;;6.12;100.00;93827.28;4997211;28;20539;-70
2022/11/29 02:13:36;;;;;;;1999.90;999.90;;;;;;;6.11;100.00;93821.06;4997349;28;20665;-67
2022/11/29 02:16:18;;;;;;;1999.90;999.90;;;;;;;6.11;100.00;93826.50;4997363;28;20242;-60
2022/11/29 02:18:49;;;;;;;1999.90;999.90;;;;;;;6.13;100.00;93828.78;5000524;28;20182;-60
2022/11/29 02:21:18;;;;;;;1999.90;999.90;;;;;;;6.14;100.00;93830.31;5001718;28;20180;-60
2022/11/29 02:24:02;;;;;;;1999.90;999.90;;;;;;;6.13;100.00;93829.53;5000812;28;20555;-60
2022/11/29 02:26:56;;;;;;;1999.90;999.90;;;;;;;6.15;100.00;93821.00;5001351;28;20174;-59
2022/11/29 02:29:58;;;;;;;1999.90;999.90;;;;;;;6.19;100.00;93827.91;5001245;28;20326;-60
2022/11/29 02:32:42;;;;;;;1999.90;999.90;;;;;;;6.21;100.00;93824.78;5001159;28;20178;-61
2022/11/29 02:35:42;;;;;;;1999.90;999.90;;;;;;;6.23;100.00;93830.56;5000465;28;20237;-62
2022/11/29 02:38:25;;;;;;;1999.90;999.90;;;;;;;6.21;100.00;93830.19;5001353;28;20175;-62
2022/11/29 02:41:12;;;;;;;1999.90;999.90;;;;;;;6.09;100.00;93833.50;5001053;28;20184;-62
2022/11/29 02:43:56;;;;;;;1999.90;999.90;;;;;;;6.13;100.00;93828.78;5000779;28;20181;-62
2022/11/29 02:46:48;;;;;;;1999.90;999.90;;;;;;;6.11;100.00;93831.13;4996902;28;20247;-62
2022/11/29 02:49:32;;;;;;;1999.90;999.90;;;;;;;6.12;100.00;93835.41;4997797;28;20222;-62
2022/11/29 02:52:06;;;;;;;1999.90;999.90;;;;;;;6.17;100.00;93834.91;4996865;28;20190;-61
2022/11/29 02:54:49;;;;;;;1999.90;999.90;;;;;;;6.15;100.00;93831.84;4997521;28;20182;-68
2022/11/29 02:57:44;;;;;;;1999.90;999.90;;;;;;;6.04;100.00;93836.66;4997616;28;20188;-67
2022/11/29 03:00:14;;;;;;;1999.90;999.90;;;;;;;6.02;100.00;93834.38;4997522;28;20187;-67
2022/11/29 03:02:55;;;;;;;1999.90;999.90;;;;;;;6.08;100.00;93831.97;4996980;28;20185;-67
2022/11/29 03:05:39;;;;;;;1999.90;999.90;;;;;;;6.10;100.00;93838.53;4996691;28;20208;-67
2022/11/29 03:08:16;;;;;;;1999.90;999.90;;;;;;;6.12;100.00;93843.53;4996562;28;20190;-67
2022/11/29 03:10:50;;;;;;;1999.90;999.90;;;;;;;6.14;100.00;93846.56;4996646;28;20172;-59
2022/11/29 03:13:22;;;;;;;1999.90;999.90;;;;;;;6.18;100.00;93837.22;4997652;28;20190;-70
2022/11/29 03:16:07;;;;;;;1999.90;999.90;;;;;;;6.16;100.00;93838.81;4997093;28;20222;-70
2022/11/29 03:19:19;;;;;;;1999.90;999.90;;;;;;;6.12;100.00;93851.66;4996353;28;20184;-70
2022/11/29 03:21:57;;;;;;;1999.90;999.90;;;;;;;6.07;100.00;93852.09;4945665;28;20188;-69
2022/11/29 03:24:33;;;;;;;1999.90;999.90;;;;;;;6.01;100.00;93848.34;4996154;28;20186;-69
2022/11/29 03:27:05;;;;;;;1999.90;999.90;;;;;;;6.05;100.00;93857.19;4997276;28;20184;-60
2022/11/29 03:29:59;;;;;;;1999.90;999.90;;;;;;;6.06;100.00;93858.72;4996863;28;20183;-69
2022/11/29 03:32:50;;;;;;;1999.90;999.90;;;;;;;6.06;100.00;93864.91;4990362;28;20202;-69
2022/11/29 03:35:42;;;;;;;1999.90;999.90;;;;;;;6.05;100.00;93859.91;4996007;28;20278;-69
2022/11/29 03:38:13;;;;;;;1999.90;999.90;;;;;;;5.91;100.00;93858.16;4996909;28;20178;-68
2022/11/29 03:40:51;;;;;;;1999.90;999.90;;;;;;;5.91;100.00;93865.53;4996461;28;20175;-68
2022/11/29 03:43:26;;;;;;;1999.90;999.90;;;;;;;5.92;100.00;93858.94;4996158;28;20191;-69
2022/11/29 03:46:00;;;;;;;1999.90;999.90;;;;;;;5.92;100.00;93848.09;4996111;28;20240;-57
2022/11/29 03:48:25;;;;;;;1999.90;999.90;;;;;;;5.91;100.00;93849.28;4996616;28;20222;-60
2022/11/29 03:51:00;;;;;;;1999.90;999.90;;;;;;;5.88;100.00;93844.69;4995679;28;20212;-60
2022/11/29 03:53:35;;;;;;;1999.90;999.90;;;;;;;5.87;100.00;93840.44;4995793;28;20638;-61
2022/11/29 03:56:21;;;;;;;1999.90;999.90;;;;;;;5.79;100.00;93830.88;4996255;28;20266;-60
2022/11/29 03:59:01;;;;;;;1999.90;999.90;;;;;;;5.79;100.00;93825.47;4996534;28;20236;-60
2022/11/29 04:01:47;;;;;;;1999.90;999.90;;;;;;;5.73;100.00;93821.69;4995337;28;20189;-60
2022/11/29 04:04:45;;;;;;;1999.90;999.90;;;;;;;5.73;100.00;93813.56;4996190;28;20647;-59
2022/11/29 04:07:32;;;;;;;1999.90;999.90;;;;;;;5.88;100.00;93806.75;4996213;28;20230;-67
2022/11/29 04:10:19;;;;;;;1999.90;999.90;;;;;;;5.90;100.00;93804.41;4995503;28;20191;-67
2022/11/29 04:13:15;;;;;;;1999.90;999.90;;;;;;;5.98;100.00;93806.56;4996146;28;20192;-69
2022/11/29 04:16:06;;;;;;;1999.90;999.90;;;;;;;6.03;100.00;93808.06;4996025;28;20303;-69
2022/11/29 04:19:03;;;;;;;1999.90;999.90;;;;;;;6.00;100.00;93803.47;4995997;28;20208;-68
2022/11/29 04:21:47;;;;;;;1999.90;999.90;;;;;;;5.80;100.00;93805.31;4995966;28;20179;-70
2022/11/29 04:24:40;;;;;;;1999.90;999.90;;;;;;;5.79;100.00;93798.38;4996384;28;20186;-57
2022/11/29 04:27:31;;;;;;;1999.90;999.90;;;;;;;5.77;100.00;93789.88;4995648;28;20184;-59
2022/11/29 04:30:04;;;;;;;1999.90;999.90;;;;;;;5.83;100.00;93788.28;4991962;28;20304;-59
2022/11/29 04:32:33;;;;;;;1999.90;999.90;;;;;;;5.84;100.00;93795.22;4996059;28;20182;-59
2022/11/29 04:35:13;;;;;;;1999.90;999.90;;;;;;;5.83;100.00;93793.69;4995148;28;20205;-59
2022/11/29 04:38:18;;;;;;;1999.90;999.90;;;;;;;5.75;100.00;93776.00;4995694;28;20546;-59
2022/11/29 04:41:26;;;;;;;1999.90;999.90;;;;;;;5.74;100.00;93771.75;4994824;28;20182;-59
2022/11/29 04:44:08;;;;;;;1999.90;999.90;;;;;;;5.70;100.00;93774.53;4949244;28;20215;-56
2022/11/29 04:47:01;;;;;;;1999.90;999.90;;;;;;;5.70;100.00;93779.16;4994570;28;20255;-56
2022/11/29 04:50:10;;;;;;;1999.90;999.90;;;;;;;5.69;100.00;93766.81;4994534;28;20181;-54
2022/11/29 04:52:42;;;;;;;1999.90;999.90;;;;;;;5.71;100.00;93759.03;4995680;28;20255;-57
2022/11/29 04:55:48;;;;;;;1999.90;999.90;;;;;;;5.71;100.00;93748.19;4994649;28;20205;-54
2022/11/29 04:58:43;;;;;;;1999.90;999.90;;;;;;;5.75;100.00;93728.03;4994867;28;20176;-55
2022/11/29 05:01:20;;;;;;;1999.90;999.90;;;;;;;5.91;100.00;93725.44;4995371;28;20173;-68
2022/11/29 05:04:06;;;;;;;1999.90;999.90;;;;;;;5.93;100.00;93733.16;4994849;28;20219;-59
2022/11/29 05:06:39;;;;;;;1999.90;999.90;;;;;;;5.98;100.00;93733.44;4995132;28;20259;-59
2022/11/29 05:09:32;;;;;;;1999.90;999.90;;;;;;;5.96;100.00;93735.81;4995071;28;20166;-59
2022/11/29 05:12:19;;;;;;;1999.90;999.90;;;;;;;5.93;100.00;93743.97;4995083;28;20177;-60
2022/11/29 05:15:26;;;;;;;1999.90;999.90;;;;;;;5.97;100.00;93729.22;4995116;28;20187;-59
2022/11/29 05:18:25;;;;;;;1999.90;999.90;;;;;;;5.99;100.00;93742.34;4994325;28;20203;-59
2022/11/29 05:21:04;;;;;;;1999.90;999.90;;;;;;;6.01;100.00;93745.41;4967296;28;20192;-59
2022/11/29 05:23:47;;;;;;;1999.90;999.90;;;;;;;5.98;100.00;93746.97;4994095;28;20175;-60
2022/11/29 05:26:18;;;;;;;1999.90;999.90;;;;;;;6.00;100.00;93751.97;4994598;28;20166;-59
2022/11/29 05:29:04;;;;;;;1999.90;999.90;;;;;;;5.89;100.00;93754.13;4994130;28;20226;-59
2022/11/29 05:31:48;;;;;;;1999.90;999.90;;;;;;;5.84;100.00;93754.59;4994051;28;20174;-59
2022/11/29 05:34:49;;;;;;;1999.90;999.90;;;;;;;5.76;100.00;93756.63;4995064;28;20172;-59
2022/11/29 05:37:26;;;;;;;1999.90;999.90;;;;;;;5.77;100.00;93757.41;4994263;28;20225;-60
2022/11/29 05:40:03;;;;;;;1999.90;999.90;;;;;;;5.69;100.00;93761.41;4993961;28;20181;-60
2022/11/29 05:42:35;;;;;;;1999.90;999.90;;;;;;;5.87;100.00;93762.66;4994727;28;20176;-60
2022/11/29 05:45:17;;;;;;;1999.90;999.90;;;;;;;5.85;100.00;93764.25;4993795;28;20276;-60
2022/11/29 05:47:53;;;;;;;1999.90;999.90;;;;;;;5.84;100.00;93762.72;4994898;28;20174;-59
2022/11/29 05:50:32;;;;;;;1999.90;999.90;;;;;;;5.89;100.00;93764.94;4994715;28;20173;-59
2022/11/29 05:53:12;;;;;;;1999.90;999.90;;;;;;;5.92;100.00;93764.13;4998568;28;20526;-60
2022/11/29 05:56:02;;;;;;;1999.90;999.90;;;;;;;5.89;100.00;93781.19;4998749;28;20252;-60
2022/11/29 05:58:52;;;;;;;1999.90;999.90;;;;;;;5.77;100.00;93784.47;4997934;28;20281;-60
2022/11/29 06:01:31;;;;;;;1999.90;999.90;;;;;;;5.73;100.00;93781.84;4997854;28;20185;-59
2022/11/29 06:04:16;;;;;;;1999.90;999.90;;;;;;;5.69;100.00;93778.41;4998547;28;20288;-59
2022/11/29 06:07:36;;;;;;;1999.90;999.90;;;;;;;5.65;100.00;93785.06;4997837;28;20188;-59
2022/11/29 06:10:09;;;;;;;1999.90;999.90;;;;;;;5.76;100.00;93774.81;4942046;29;20270;-59
2022/11/29 06:12:36;;;;;;;1999.90;999.90;;;;;;;5.82;100.00;93775.91;4942655;29;20174;-60
2022/11/29 06:15:19;;;;;;;1999.90;999.90;;;;;;;5.83;100.00;93777.44;4976334;28;20247;-59
2022/11/29 06:17:54;;;;;;;1999.90;999.90;;;;;;;5.83;100.00;93780.16;4998237;28;20177;-61
2022/11/29 06:20:31;;;;;;;1999.90;999.90;;;;;;;5.79;100.00;93782.13;4998396;28;20171;-61
2022/11/29 06:23:03;;;;;;;1999.90;999.90;;;;;;;5.85;100.00;93785.91;4998309;28;20323;-61
2022/11/29 06:26:00;;;;;;;1999.90;999.90;;;;;;;5.80;100.00;93787.13;4997198;28;20184;-62
2022/11/29 06:28:31;;;;;;;1999.90;999.90;;;;;;;5.84;100.00;93796.00;4985514;28;20185;-62
2022/11/29 06:31:04;;;;;;;1999.90;999.90;;;;;;;5.83;100.00;93799.13;4997332;28;20172;-56
2022/11/29 06:33:41;;;;;;;1999.90;999.90;;;;;;;5.81;100.00;93802.25;4997918;28;20281;-61
2022/11/29 06:36:16;;;;;;;1999.90;999.90;;;;;;;5.84;100.00;93806.06;4997255;28;20199;-62
2022/11/29 06:38:42;;;;;;;1999.90;999.90;;;;;;;5.88;100.00;93801.34;4997990;28;20166;-63
2022/11/29 06:41:15;;;;;;;1999.90;999.90;;;;;;;5.89;100.00;93802.88;4997123;28;20172;-60
2022/11/29 06:43:40;;;;;;;1999.90;999.90;;;;;;;5.88;100.00;93812.19;4997406;28;20169;-59
2022/11/29 06:46:19;;;;;;;1999.90;999.90;;;;;;;5.86;100.00;93814.53;4996665;28;20231;-64
2022/11/29 06:48:51;;;;;;;1999.90;999.90;;;;;;;5.84;100.00;93828.50;4996845;28;20192;-63
2022/11/29 06:51:26;;;;;;;1999.90;999.90;;;;;;;5.74;100.00;93817.78;4996977;28;20263;-63
2022/11/29 06:53:51;;;;;;;1999.90;999.90;;;;;;;5.71;100.00;93824.78;4997409;28;20185;-68
2022/11/29 06:56:31;;;;;;;1999.90;999.90;;;;;;;5.66;100.00;93821.78;4997264;28;20220;-69
2022/11/29 06:59:10;;;;;;;1999.90;999.90;;;;;;;5.66;100.00;93821.78;4996945;28;20188;-68
2022/11/29 07:01:48;;;;;;;1999.90;999.90;;;;;;;5.59;100.00;93833.50;4997086;28;20168;-71
2022/11/29 07:04:38;;;;;;;1999.90;999.90;;;;;;;5.56;100.00;93833.53;4996518;28;20276;-69
2022/11/29 07:07:12;;;;;;;1999.90;999.90;;;;;;;5.61;100.00;93825.72;4996292;28;20186;-69
2022/11/29 07:09:38;;;;;;;1999.90;999.90;;;;;;;5.55;100.00;93832.00;4996566;28;20174;-59
2022/11/29 07:12:04;;;;;;;1999.90;999.90;;;;;;;5.56;100.00;93834.31;4996573;28;20177;-59
2022/11/29 07:14:30;;;;;;;1999.90;999.90;;;;;;;5.62;100.00;93829.97;4996497;28;20178;-60
2022/11/29 07:17:02;;;;;;;1999.90;999.90;;;;;;;5.67;100.00;93829.50;4997035;28;20208;-60
2022/11/29 07:19:33;;;;;;;1999.90;999.90;;;;;;;5.64;100.00;93826.84;4996652;28;20191;-60
2022/11/29 07:22:30;;;;;;;1999.90;999.90;;;;;;;5.59;100.00;93827.31;4997008;28;20236;-59
2022/11/29 07:25:07;;;;;;;1999.90;999.90;;;;;;;5.58;100.00;93831.19;4997021;28;20222;-60
2022/11/29 07:27:59;;;;;;;1999.90;999.90;;;;;;;5.63;100.00;93830.72;4996324;28;20184;-59
2022/11/29 07:30:42;;;;;;;1999.90;999.90;;;;;;;5.62;100.00;93831.91;4996809;28;20619;-50
2022/11/29 07:33:36;;;;;;;1999.90;999.90;;;;;;;5.61;100.00;93824.97;4996916;28;20176;-51
2022/11/29 07:36:05;;;;;;;1999.90;999.90;;;;;;;5.61;100.00;93830.38;4996814;28;20202;-50
2022/11/29 07:38:57;;;;;;;1999.90;999.90;;;;;;;5.58;100.00;93839.31;4996066;28;20276;-49
2022/11/29 07:42:00;;;;;;;1999.90;999.90;;;;;;;5.61;100.00;93835.78;4996089;28;20167;-48
2022/11/29 07:44:36;;;;;;;1999.90;999.90;;;;;;;5.61;100.00;93822.25;4966125;28;20225;-60
2022/11/29 07:47:01;;;;;;;1999.90;999.90;;;;;;;5.62;100.00;93829.19;4996444;28;20659;-66
2022/11/29 07:49:26;;;;;;;1999.90;999.90;;;;;;;5.62;100.00;93827.28;4996180;28;20217;-60
2022/11/29 07:51:53;;;;;;;1999.90;999.90;;;;;;;5.65;100.00;93825.69;4996057;28;20178;-59
2022/11/29 07:54:19;;;;;;;1999.90;999.90;;;;;;;5.72;100.00;93831.00;4995973;28;20178;-60
2022/11/29 07:56:44;;;;;;;1999.90;999.90;;;;;;;5.80;100.00;93825.03;4996146;28;20210;-59
2022/11/29 07:59:11;;;;;;;1999.90;999.90;;;;;;;5.81;100.00;93823.13;4995924;28;20215;-59
2022/11/29 08:01:37;;;;;;;1999.90;999.90;;;;;;;5.85;100.00;93829.25;4996153;28;20177;-60
2022/11/29 08:04:03;;;;;;;1999.90;999.90;;;;;;;5.80;100.00;93832.41;4995746;28;20204;-48
2022/11/29 08:06:29;;;;;;;1999.90;999.90;;;;;;;5.81;100.00;93833.97;4995670;28;20178;-59
2022/11/29 08:08:57;;;;;;;1999.90;999.90;;;;;;;5.77;100.00;93838.63;4995522;28;20227;-59
2022/11/29 08:11:23;;;;;;;1999.90;999.90;;;;;;;5.82;100.00;93832.78;4996220;28;20206;-59
2022/11/29 08:13:48;;;;;;;1999.90;999.90;;;;;;;5.83;100.00;93837.78;4995573;28;20178;-56
2022/11/29 08:16:17;;;;;;;1999.90;999.90;;;;;;;5.82;100.00;93851.72;4994727;28;20233;-59
2022/11/29 08:18:43;;;;;;;1999.90;999.90;;;;;;;5.79;100.00;93853.28;4995613;28;20179;-55
2022/11/29 08:21:08;;;;;;;1999.90;999.90;;;;;;;5.85;100.00;93856.34;4995857;28;20181;-65
2022/11/29 08:23:34;;;;;;;1999.90;999.90;;;;;;;5.85;100.00;93857.09;4995531;28;20186;-59
2022/11/29 08:26:01;;;;;;;1999.90;999.90;;;;;;;5.85;100.00;93867.94;4995458;28;20181;-68
2022/11/29 08:28:26;;;;;;;1999.90;999.90;;;;;;;5.79;100.00;93874.97;4995175;28;20181;-70
2022/11/29 08:31:03;;;;;;;1999.90;999.90;;;;;;;5.86;100.00;93868.69;4995238;28;20190;-72
2022/11/29 08:33:29;;;;;;;1999.90;999.90;;;;;;;5.81;100.00;93882.72;4995883;28;20174;-72
2022/11/29 08:35:55;;;;;;;1999.90;999.90;;;;;;;5.74;100.00;93882.78;4995084;28;20251;-73
2022/11/29 08:38:20;;;;;;;1999.90;999.90;;;;;;;5.78;100.00;93883.50;4995164;28;20182;-69
2022/11/29 08:40:46;;;;;;;1999.90;999.90;;;;;;;5.80;100.00;93881.16;4995264;28;20183;-58
2022/11/29 08:43:11;;;;;;;1999.90;999.90;;;;;;;5.82;100.00;93882.31;4995627;28;20176;-51
2022/11/29 08:45:37;;;;;;;1999.90;999.90;;;;;;;5.89;100.00;93890.31;4994660;28;20292;-52
2022/11/29 08:48:02;;;;;;;1999.90;999.90;;;;;;;5.87;100.00;93889.19;4995023;28;20174;-53
2022/11/29 08:50:27;;;;;;;1999.90;999.90;;;;;;;5.83;100.00;93893.91;4994925;28;20174;-49
2022/11/29 08:55:41;;;;;;;1999.90;999.90;;;;;;;5.80;100.00;93902.81;4977237;28;20277;-48
2022/11/29 08:58:16;;;;;;;1999.90;999.90;;;;;;;5.73;100.00;93909.09;4994373;28;20204;-54
2022/11/29 09:00:44;;;;;;;1999.90;999.90;;;;;;;5.68;100.00;93916.94;4995235;28;20172;-60
2022/11/29 09:05:56;;;;;;;1999.90;999.90;;;;;;;5.81;100.00;93917.91;4974960;28;20187;-72
2022/11/29 09:08:21;;;;;;;1999.90;999.90;;;;;;;5.79;100.00;93918.28;4994783;28;20180;-71
2022/11/29 09:10:48;;;;;;;1999.90;999.90;;;;;;;5.83;100.00;93929.13;4994468;28;20216;-70
2022/11/29 09:13:13;;;;;;;1999.90;999.90;;;;;;;5.84;100.00;93931.41;4995156;28;20175;-71
2022/11/29 09:15:40;;;;;;;1999.90;999.90;;;;;;;5.79;100.00;93933.78;4994461;28;20291;-74
2022/11/29 09:18:06;;;;;;;1999.90;999.90;;;;;;;5.90;100.00;93942.56;4994141;28;20197;-60
2022/11/29 09:20:32;;;;;;;1999.90;999.90;;;;;;;5.86;100.00;93950.72;4994528;28;20182;-59
2022/11/29 09:22:58;;;;;;;1999.90;999.90;;;;;;;5.98;100.00;93938.56;4994219;28;20278;-59
2022/11/29 09:25:24;;;;;;;1999.90;999.90;;;;;;;5.99;100.00;93948.22;4994761;28;20192;-59
2022/11/29 09:27:50;;;;;;;1999.90;999.90;;;;;;;6.09;100.00;93945.34;4994131;28;20178;-58
2022/11/29 09:30:16;;;;;;;1999.90;999.90;;;;;;;6.16;100.00;93952.63;4994280;28;20183;-59
2022/11/29 09:32:41;;;;;;;1999.90;999.90;;;;;;;6.20;100.00;93958.75;4994098;28;20183;-61
2022/11/29 09:35:07;;;;;;;1999.90;999.90;;;;;;;6.17;100.00;93965.00;4994168;28;20256;-69
2022/11/29 09:37:35;;;;;;;1999.90;999.90;;;;;;;6.21;100.00;93968.41;4994816;28;20277;-61
2022/11/29 09:40:03;;;;;;;1999.90;999.90;;;;;;;6.07;100.00;93990.28;4995010;28;20174;-60
2022/11/29 09:42:53;;;;;;;1999.90;999.90;;;;;;;6.14;100.00;93998.31;4993945;28;20225;-61
2022/11/29 09:45:28;;;;;;;1999.90;999.90;;;;;;;6.21;100.00;93999.00;4993868;28;20229;-61
2022/11/29 09:48:15;;;;;;;1999.90;999.90;;;;;;;6.23;100.00;94001.31;4994084;28;20236;-61
2022/11/29 09:50:49;;;;;;;1999.90;999.90;;;;;;;6.19;100.00;94016.81;4994875;28;20261;-60
2022/11/29 09:53:38;;;;;;;1999.90;999.90;;;;;;;6.17;100.00;94024.59;4993904;28;20210;-60
2022/11/29 09:56:15;;;;;;;1999.90;999.90;;;;;;;6.10;100.00;94035.53;4994049;28;20288;-60
2022/11/29 09:58:55;;;;;;;1999.90;999.90;;;;;;;6.21;100.00;94038.88;4994783;28;20184;-71
2022/11/29 10:01:28;;;;;;;1999.90;999.90;;;;;;;6.10;100.00;94055.28;4994642;28;20172;-71
2022/11/29 10:04:00;;;;;;;1999.90;999.90;;;;;;;6.18;100.00;94061.38;4994030;28;20203;-69
2022/11/29 10:06:35;;;;;;;1999.90;999.90;;;;;;;6.19;100.00;94060.97;4993932;28;20277;-72
2022/11/29 10:09:23;;;;;;;1999.90;999.90;;;;;;;6.16;100.00;94066.44;4994792;28;20236;-71
2022/11/29 10:12:10;;;;;;;1999.90;999.90;;;;;;;6.22;100.00;94075.63;4994141;28;20171;-61
2022/11/29 10:15:00;;;;;;;1999.90;999.90;;;;;;;6.19;100.00;94076.44;4993802;28;20182;-60
2022/11/29 10:17:35;;;;;;;1999.90;999.90;;;;;;;6.23;100.00;94077.19;4994521;28;20231;-59
2022/11/29 10:20:15;;;;;;;1999.90;999.90;;;;;;;6.23;100.00;94079.91;4994287;28;20185;-60
2022/11/29 10:22:58;;;;;;;1999.90;999.90;;;;;;;6.24;100.00;94078.72;4993643;28;20309;-60
2022/11/29 10:25:25;;;;;;;1999.90;999.90;;;;;;;6.27;100.00;94088.75;4993783;28;20233;-60
2022/11/29 10:27:51;;;;;;;1999.90;999.90;;;;;;;6.34;100.00;94091.38;4994609;28;20276;-59
2022/11/29 10:30:17;;;;;;;1999.90;999.90;;;;;;;6.35;100.00;94098.31;4993492;28;20201;-60
2022/11/29 10:32:45;;;;;;;1999.90;999.90;;;;;;;6.34;100.00;94104.91;4993275;28;20325;-60
2022/11/29 10:35:13;;;;;;;1999.90;999.90;;;;;;;6.30;100.00;94113.09;4993690;28;20294;-59
2022/11/29 10:37:39;;;;;;;1999.90;999.90;;;;;;;6.38;100.00;94105.63;4994066;28;20185;-59
2022/11/29 10:40:12;;;;;;;1999.90;999.90;;;;;;;6.33;100.00;94106.06;4997218;28;20178;-62
2022/11/29 10:42:52;;;;;;;1999.90;999.90;;;;;;;6.28;100.00;94117.38;4997024;28;20180;-59
2022/11/29 10:45:34;;;;;;;1999.90;999.90;;;;;;;6.16;100.00;94126.81;4997373;28;20313;-59
2022/11/29 10:48:08;;;;;;;1999.90;999.90;;;;;;;6.18;100.00;94132.59;4996931;28;20191;-59
2022/11/29 10:50:35;;;;;;;1999.90;999.90;;;;;;;6.20;100.00;94132.19;4997130;28;20170;-72
2022/11/29 10:53:24;;;;;;;1999.90;999.90;;;;;;;6.18;100.00;94145.38;4997139;28;20317;-67
2022/11/29 10:56:06;;;;;;;1999.90;999.90;;;;;;;6.22;100.00;94141.47;4997190;28;20204;-67
2022/11/29 10:58:31;;;;;;;1999.90;999.90;;;;;;;6.26;100.00;94146.81;4996735;28;20174;-68
2022/11/29 11:01:06;;;;;;;1999.90;999.90;;;;;;;6.21;100.00;94160.84;4996939;28;20194;-67
2022/11/29 11:03:39;;;;;;;1999.90;999.90;;;;;;;6.22;100.00;94155.00;4996813;28;20166;-67
2022/11/29 11:06:15;;;;;;;1999.90;999.90;;;;;;;6.32;100.00;94154.13;4996553;28;20189;-66
2022/11/29 11:08:51;;;;;;;1999.90;999.90;;;;;;;6.39;100.00;94145.91;4997144;28;20271;-52
2022/11/29 11:11:32;;;;;;;1999.90;999.90;;;;;;;6.17;100.00;94165.53;4996361;28;20243;-66
2022/11/29 11:14:17;;;;;;;1999.90;999.90;;;;;;;6.29;100.00;94163.06;4996818;28;20210;-66
2022/11/29 11:16:42;;;;;;;1999.90;999.90;;;;;;;6.29;100.00;94173.91;4996246;28;20765;-66
2022/11/29 11:19:30;;;;;;;1999.90;999.90;;;;;;;6.33;100.00;94160.28;4997216;28;20214;-66
2022/11/29 11:21:58;;;;;;;1999.90;999.90;;;;;;;6.28;100.00;94166.16;4997021;28;20214;-66
2022/11/29 11:24:39;;;;;;;1999.90;999.90;;;;;;;6.27;100.00;94170.06;4996568;28;20318;-66
2022/11/29 11:27:04;;;;;;;1999.90;999.90;;;;;;;6.34;100.00;94169.97;4996971;28;20268;-60
2022/11/29 11:29:42;;;;;;;1999.90;999.90;;;;;;;6.44;100.00;94172.56;4996878;28;20216;-67
2022/11/29 11:32:18;;;;;;;1999.90;999.90;;;;;;;6.61;100.00;94159.94;4996639;28;20269;-67
2022/11/29 11:34:52;;;;;;;1999.90;999.90;;;;;;;6.58;100.00;94164.22;4996241;28;20170;-67
2022/11/29 11:37:19;;;;;;;1999.90;999.90;;;;;;;6.47;100.00;94179.09;4996262;28;20193;-66
2022/11/29 11:39:47;;;;;;;1999.90;999.90;;;;;;;6.44;100.00;94185.31;4996860;28;20181;-67